Urie, Wyoming
Current Conditions -  °F | °C
As of 12:15 PM on Sunday 21 Dec 2014 (Local Time) from KFBR Reporting Station
Overcast Overcast  
Wind Chill: 26°   Ceiling: 9000
Heat Index: 38°   Visibility: 10mi
Dew Point: 35°   Wind: 28mph
Humidity: 90%   Direction: 250°WSW
Pressure: 29.83"   Gusts: 43mph
Location:  41.3257°N, 110.285°W
Report Text: KFBR 211915Z AUTO 25024G37KT 10SM SCT015 SCT028 OVC090 03/02 A2983 RMK AO2 T00320017
Loading
Personal Weather Stations






























Interactive Weather Map New forecast layout! Learn more

10-Day Weather Forecast

Advertisements
Track Severe Weather on mobile